Time;durP1;ratioP1;P1;durP2;ratioP2;P2;SDS_P1;SDS_P2;PMS_P1;PMS_P2;Temp;Humidity;BMP_temperature;BMP_pressure;BME280_temperature;BME280_humidity;BME280_pressure;Samples;Min_cycle;Max_cycle;Signal;HPM_P1;HPM_P2
2021/06/25 00:01:36;;;;;;;15.50;14.00;;;17.20;74.00;;;;;;4962847;28;20081;-77
2021/06/25 00:04:02;;;;;;;15.38;13.77;;;17.10;74.00;;;;;;4980672;28;20106;-77
2021/06/25 00:06:28;;;;;;;16.08;13.80;;;17.00;74.20;;;;;;4963224;28;20371;-76
2021/06/25 00:08:53;;;;;;;15.93;14.20;;;17.00;74.40;;;;;;4963906;28;20031;-77
2021/06/25 00:11:19;;;;;;;17.77;14.55;;;16.90;74.60;;;;;;4947498;28;20399;-76
2021/06/25 00:13:45;;;;;;;17.63;14.25;;;16.90;74.80;;;;;;4978637;28;20029;-78
2021/06/25 00:16:10;;;;;;;15.27;13.75;;;16.80;74.90;;;;;;4960760;28;20097;-76
2021/06/25 00:18:36;;;;;;;18.98;14.68;;;16.70;75.20;;;;;;4961274;28;20042;-77
2021/06/25 00:21:02;;;;;;;17.52;14.73;;;16.60;75.20;;;;;;4960617;28;20041;-76
2021/06/25 00:23:27;;;;;;;16.65;14.65;;;16.60;75.40;;;;;;4978142;28;20031;-76
2021/06/25 00:25:53;;;;;;;18.60;15.70;;;16.50;75.60;;;;;;4977960;28;20049;-77
2021/06/25 00:28:19;;;;;;;17.02;15.10;;;16.50;75.60;;;;;;4978358;28;20191;-76
2021/06/25 00:30:44;;;;;;;16.65;14.95;;;16.40;75.80;;;;;;4961508;28;20047;-76
2021/06/25 00:33:11;;;;;;;17.95;15.15;;;16.40;75.90;;;;;;4961312;28;20049;-76
2021/06/25 00:35:37;;;;;;;18.05;15.75;;;16.30;75.80;;;;;;4976908;28;20046;-77
2021/06/25 00:38:04;;;;;;;14.85;13.20;;;16.20;76.00;;;;;;4959321;28;20125;-76
2021/06/25 00:40:34;;;;;;;17.65;14.68;;;16.20;76.20;;;;;;4943664;28;20066;-77
2021/06/25 00:43:00;;;;;;;19.75;15.57;;;16.10;76.10;;;;;;4976879;28;20031;-77
2021/06/25 00:45:26;;;;;;;18.67;15.15;;;16.10;76.30;;;;;;4959008;28;20117;-77
2021/06/25 00:47:52;;;;;;;16.85;14.90;;;16.10;76.40;;;;;;4959487;28;20054;-78
2021/06/25 00:50:21;;;;;;;19.25;15.20;;;16.00;76.50;;;;;;4976682;28;20383;-77
2021/06/25 00:52:57;;;;;;;17.33;15.52;;;16.00;76.70;;;;;;4976647;28;20027;-76
2021/06/25 00:55:24;;;;;;;18.90;15.38;;;15.90;76.80;;;;;;4977106;28;20035;-77
2021/06/25 00:57:51;;;;;;;17.73;15.90;;;15.90;76.90;;;;;;4958997;28;20035;-77
2021/06/25 01:00:17;;;;;;;17.55;15.48;;;15.80;77.00;;;;;;4976550;28;20035;-77
2021/06/25 01:02:44;;;;;;;20.27;16.02;;;15.80;77.20;;;;;;4976522;28;20066;-77
2021/06/25 01:05:10;;;;;;;18.50;16.60;;;15.80;77.20;;;;;;4959152;28;20026;-77
2021/06/25 01:07:36;;;;;;;17.58;15.70;;;15.70;77.30;;;;;;4943119;28;20122;-77
2021/06/25 01:10:03;;;;;;;18.70;16.23;;;15.70;77.40;;;;;;4976305;28;20428;-77
2021/06/25 01:12:29;;;;;;;18.35;16.55;;;15.70;77.40;;;;;;4959133;28;20026;-77
2021/06/25 01:14:55;;;;;;;20.10;17.85;;;15.60;77.50;;;;;;4942333;28;20129;-77
2021/06/25 01:17:32;;;;;;;20.17;16.55;;;15.60;77.60;;;;;;4958785;28;20037;-76
2021/06/25 01:19:59;;;;;;;18.40;16.40;;;15.60;77.70;;;;;;4976193;28;20069;-77
2021/06/25 01:22:34;;;;;;;19.30;17.35;;;15.50;77.80;;;;;;4959339;28;20487;-77
2021/06/25 01:25:02;;;;;;;19.98;17.85;;;15.50;77.90;;;;;;4959561;28;20077;-77
2021/06/25 01:27:28;;;;;;;21.17;18.88;;;15.50;77.90;;;;;;4943845;28;20030;-77
2021/06/25 01:30:01;;;;;;;21.58;18.17;;;15.40;78.00;;;;;;4958557;28;20563;-78
2021/06/25 01:32:26;;;;;;;;;;;15.30;78.40;;;;;;4958919;28;20026;-77
2021/06/25 01:34:52;;;;;;;21.30;18.08;;;15.20;78.60;;;;;;4975914;28;19947;-76
2021/06/25 01:37:19;;;;;;;21.00;18.25;;;15.20;78.80;;;;;;4975454;28;20538;-77
2021/06/25 01:39:49;;;;;;;22.38;19.98;;;15.10;79.20;;;;;;4958115;28;20182;-77
2021/06/25 01:42:14;;;;;;;21.30;19.08;;;15.00;79.40;;;;;;4958201;28;20490;-77
2021/06/25 01:44:40;;;;;;;22.92;19.58;;;15.00;79.60;;;;;;4975460;28;20042;-76
2021/06/25 01:47:06;;;;;;;24.48;19.33;;;14.90;79.90;;;;;;4975364;28;20030;-76
2021/06/25 01:49:32;;;;;;;22.02;19.60;;;14.80;80.10;;;;;;4958629;28;20057;-76
2021/06/25 01:51:58;;;;;;;21.63;19.13;;;14.80;80.30;;;;;;4975703;28;20470;-78
2021/06/25 01:54:23;;;;;;;25.95;19.52;;;14.80;80.60;;;;;;4958839;28;20042;-77
2021/06/25 01:56:49;;;;;;;23.67;20.05;;;14.70;80.60;;;;;;4942228;28;20097;-77
2021/06/25 01:59:15;;;;;;;25.25;19.83;;;14.70;80.90;;;;;;4942236;28;20035;-77
2021/06/25 02:01:41;;;;;;;21.52;19.35;;;14.70;81.10;;;;;;4942205;28;20054;-77
2021/06/25 02:04:06;;;;;;;24.13;21.52;;;14.60;81.30;;;;;;4957870;28;20061;-76
2021/06/25 02:06:32;;;;;;;21.85;19.23;;;14.60;81.30;;;;;;4957925;28;20042;-77
2021/06/25 02:08:58;;;;;;;21.85;19.40;;;14.50;81.60;;;;;;4942013;28;20038;-77
2021/06/25 02:11:24;;;;;;;23.63;20.05;;;14.40;81.90;;;;;;4958010;28;20037;-76
2021/06/25 02:13:49;;;;;;;25.40;21.38;;;14.40;82.10;;;;;;4957513;28;20054;-76
2021/06/25 02:16:15;;;;;;;22.17;19.88;;;14.30;82.30;;;;;;4957655;28;20034;-76
2021/06/25 02:18:41;;;;;;;22.08;19.63;;;14.30;82.50;;;;;;4957743;28;20034;-77
2021/06/25 02:21:07;;;;;;;22.48;19.80;;;14.20;82.70;;;;;;4958080;28;20030;-77
2021/06/25 02:23:33;;;;;;;22.17;19.40;;;14.20;82.80;;;;;;4975584;28;20034;-76
2021/06/25 02:25:58;;;;;;;23.40;20.52;;;14.10;83.00;;;;;;4942068;28;20373;-76
2021/06/25 02:28:25;;;;;;;21.17;19.08;;;14.10;83.20;;;;;;4957458;28;20050;-77
2021/06/25 02:30:50;;;;;;;25.58;20.58;;;14.00;83.30;;;;;;4974911;28;20026;-76
2021/06/25 02:33:16;;;;;;;23.02;20.58;;;14.00;83.40;;;;;;4957396;28;20368;-76
2021/06/25 02:35:42;;;;;;;23.50;19.80;;;14.00;83.50;;;;;;4957305;28;20077;-77
2021/06/25 02:38:08;;;;;;;22.25;19.20;;;14.00;83.60;;;;;;4956645;28;20023;-78
2021/06/25 02:40:33;;;;;;;22.92;20.38;;;13.90;83.60;;;;;;4957651;28;20058;-76
2021/06/25 02:42:59;;;;;;;22.52;20.20;;;13.90;83.70;;;;;;4957972;28;20472;-76
2021/06/25 02:45:25;;;;;;;23.58;20.20;;;13.80;83.90;;;;;;4974548;28;20391;-76
2021/06/25 02:47:50;;;;;;;24.88;20.73;;;13.70;84.10;;;;;;4957223;28;20399;-76
2021/06/25 02:50:16;;;;;;;26.63;21.77;;;13.70;84.30;;;;;;4957174;28;20112;-77
2021/06/25 02:52:42;;;;;;;25.08;21.23;;;13.60;84.40;;;;;;4974500;28;20027;-76
2021/06/25 02:55:10;;;;;;;23.52;20.83;;;13.50;84.60;;;;;;4974541;28;20037;-76
2021/06/25 02:57:36;;;;;;;24.52;21.92;;;13.50;84.90;;;;;;4974148;28;20034;-76
2021/06/25 03:00:05;;;;;;;24.15;21.45;;;13.50;85.00;;;;;;4957280;28;20027;-76
2021/06/25 03:02:30;;;;;;;24.73;21.20;;;13.40;85.00;;;;;;4974084;28;20054;-76
2021/06/25 03:04:56;;;;;;;24.35;20.63;;;13.40;85.30;;;;;;4957144;28;20039;-77
2021/06/25 03:07:22;;;;;;;24.20;19.90;;;13.40;85.50;;;;;;4941444;28;20039;-75
2021/06/25 03:09:47;;;;;;;29.08;20.15;;;13.40;85.40;;;;;;4957008;28;20027;-76
2021/06/25 03:12:13;;;;;;;24.23;21.63;;;13.40;85.30;;;;;;4941044;28;20039;-76
2021/06/25 03:14:41;;;;;;;23.40;20.35;;;13.30;85.20;;;;;;4974605;28;20070;-77
2021/06/25 03:17:06;;;;;;;23.55;20.63;;;13.30;85.30;;;;;;4956879;28;20046;-77
2021/06/25 03:19:32;;;;;;;23.55;21.02;;;13.30;85.50;;;;;;4957424;28;20399;-76
2021/06/25 03:21:58;;;;;;;24.70;20.52;;;13.20;85.50;;;;;;4957397;28;20117;-76
2021/06/25 03:24:23;;;;;;;25.50;21.63;;;13.20;85.50;;;;;;4957597;28;20100;-77
2021/06/25 03:26:49;;;;;;;23.88;21.38;;;13.20;85.50;;;;;;4956991;28;20026;-76
2021/06/25 03:29:15;;;;;;;25.38;22.35;;;13.20;85.60;;;;;;4957384;28;20118;-77
2021/06/25 03:31:40;;;;;;;26.35;23.02;;;13.30;85.50;;;;;;4956780;28;20027;-76
2021/06/25 03:34:06;;;;;;;24.75;22.13;;;13.20;85.40;;;;;;4956811;28;20361;-77
2021/06/25 03:36:33;;;;;;;28.10;23.05;;;13.20;85.50;;;;;;4956842;28;20440;-76
2021/06/25 03:38:58;;;;;;;24.88;21.88;;;13.20;85.50;;;;;;4956972;28;20525;-76
2021/06/25 03:41:24;;;;;;;26.08;21.40;;;13.20;85.60;;;;;;4956949;28;20031;-77
2021/06/25 03:43:50;;;;;;;25.23;21.67;;;13.20;85.50;;;;;;4956841;28;20460;-77
2021/06/25 03:46:15;;;;;;;26.02;22.50;;;13.30;85.50;;;;;;4974562;28;20427;-78
2021/06/25 03:48:41;;;;;;;25.80;22.50;;;13.40;85.40;;;;;;4958216;28;20023;-77
2021/06/25 03:51:07;;;;;;;29.95;22.52;;;13.50;85.20;;;;;;4960887;28;20106;-77
2021/06/25 03:53:32;;;;;;;23.92;21.33;;;13.50;85.10;;;;;;4960725;28;20031;-77
2021/06/25 03:56:13;;;;;;;23.57;20.80;;;13.60;84.80;;;;;;4960747;28;20121;-77
2021/06/25 03:58:40;;;;;;;25.00;20.20;;;13.80;84.50;;;;;;4977614;28;20035;-78
2021/06/25 04:01:07;;;;;;;26.77;21.48;;;14.20;83.70;;;;;;4978280;28;20038;-77
2021/06/25 04:03:32;;;;;;;23.52;21.08;;;14.60;82.60;;;;;;4960011;28;20031;-77
2021/06/25 04:05:58;;;;;;;23.23;20.90;;;15.00;81.40;;;;;;4944115;28;20027;-77
2021/06/25 04:08:26;;;;;;;24.90;20.65;;;15.30;80.40;;;;;;4959676;28;20034;-78
2021/06/25 04:10:52;;;;;;;22.88;20.38;;;15.30;79.90;;;;;;4959737;28;20034;-77
2021/06/25 04:13:18;;;;;;;24.30;20.85;;;15.60;79.40;;;;;;4977349;28;20131;-78
2021/06/25 04:15:43;;;;;;;22.70;20.33;;;15.70;78.90;;;;;;4959887;28;20051;-77
2021/06/25 04:18:09;;;;;;;23.10;20.35;;;15.90;78.50;;;;;;4944021;28;20391;-77
2021/06/25 04:20:35;;;;;;;23.10;20.50;;;16.10;77.90;;;;;;4977369;28;20031;-77
2021/06/25 04:23:00;;;;;;;23.25;20.75;;;16.80;76.80;;;;;;4959724;28;20041;-77
2021/06/25 04:25:26;;;;;;;23.65;19.73;;;18.10;73.50;;;;;;4959459;28;20082;-75
2021/06/25 04:27:53;;;;;;;23.45;19.25;;;19.40;69.90;;;;;;4976693;28;20422;-75
2021/06/25 04:30:19;;;;;;;22.77;19.58;;;20.40;66.70;;;;;;4944381;28;20479;-76
2021/06/25 04:32:46;;;;;;;21.77;19.50;;;21.20;64.50;;;;;;4976792;28;20035;-76
2021/06/25 04:35:12;;;;;;;22.73;19.77;;;21.80;62.50;;;;;;4943561;28;20027;-76
2021/06/25 04:37:37;;;;;;;21.30;19.20;;;22.40;61.40;;;;;;4976690;28;20031;-75
2021/06/25 04:40:04;;;;;;;21.70;19.08;;;23.00;59.10;;;;;;4976663;28;20079;-75
2021/06/25 04:42:30;;;;;;;22.73;20.25;;;23.50;57.20;;;;;;4943291;28;20035;-75
2021/06/25 04:44:56;;;;;;;25.65;20.95;;;24.00;55.60;;;;;;4976391;28;20034;-75
2021/06/25 04:47:21;;;;;;;22.80;20.17;;;24.50;53.80;;;;;;4976373;28;20042;-77
2021/06/25 04:49:47;;;;;;;21.88;19.55;;;24.70;53.00;;;;;;4977190;28;20023;-75
2021/06/25 04:52:13;;;;;;;21.55;19.35;;;24.90;52.20;;;;;;4943182;28;20082;-76
2021/06/25 04:54:39;;;;;;;25.13;20.70;;;24.70;52.20;;;;;;4959457;28;20030;-75
2021/06/25 04:57:04;;;;;;;23.40;21.00;;;24.20;53.10;;;;;;4976575;28;20042;-75
2021/06/25 04:59:30;;;;;;;22.95;20.60;;;23.60;54.60;;;;;;4958488;28;20033;-76
2021/06/25 05:01:56;;;;;;;23.88;21.38;;;23.20;55.80;;;;;;4959230;28;20467;-75
2021/06/25 05:04:21;;;;;;;24.52;21.98;;;23.00;56.40;;;;;;4959282;28;20054;-75
2021/06/25 05:06:47;;;;;;;25.25;21.70;;;22.70;57.40;;;;;;4976716;28;20023;-75
2021/06/25 05:09:16;;;;;;;25.27;22.58;;;22.30;58.50;;;;;;4959241;28;20034;-76
2021/06/25 05:11:42;;;;;;;25.63;22.83;;;21.90;59.50;;;;;;4942894;28;20027;-76
2021/06/25 05:14:09;;;;;;;28.48;23.23;;;21.90;60.00;;;;;;4976526;28;20031;-76
2021/06/25 05:16:35;;;;;;;26.05;23.25;;;22.50;59.30;;;;;;4958571;28;20035;-77
2021/06/25 05:19:01;;;;;;;27.08;24.08;;;23.60;56.70;;;;;;4976402;28;20045;-75
2021/06/25 05:21:27;;;;;;;25.55;22.90;;;24.30;54.50;;;;;;4943388;28;20023;-78
2021/06/25 05:23:52;;;;;;;29.23;24.92;;;24.70;53.20;;;;;;4975730;28;20109;-76
2021/06/25 05:26:20;;;;;;;28.45;24.77;;;24.60;53.00;;;;;;4975769;28;20460;-77
2021/06/25 05:28:47;;;;;;;29.70;24.40;;;24.50;53.40;;;;;;4975523;28;20493;-76
2021/06/25 05:31:12;;;;;;;28.38;22.73;;;24.10;53.70;;;;;;4975480;28;20538;-76
2021/06/25 05:33:38;;;;;;;25.45;22.73;;;23.70;55.20;;;;;;4975658;28;20058;-76
2021/06/25 05:36:04;;;;;;;27.77;24.77;;;23.30;56.40;;;;;;4942935;28;20045;-75
2021/06/25 05:38:30;;;;;;;27.52;24.50;;;23.10;57.10;;;;;;4958134;28;20049;-76
2021/06/25 05:40:56;;;;;;;33.10;28.13;;;22.80;58.10;;;;;;4957586;28;20129;-75
2021/06/25 05:43:22;;;;;;;32.05;27.85;;;22.50;58.80;;;;;;4958193;28;20034;-75
2021/06/25 05:45:47;;;;;;;31.85;28.45;;;22.50;59.10;;;;;;4975141;28;20039;-75
2021/06/25 05:48:13;;;;;;;35.80;30.38;;;22.50;59.10;;;;;;4975243;28;20030;-75
2021/06/25 05:50:39;;;;;;;32.97;29.38;;;22.50;59.10;;;;;;4957666;28;20031;-77
2021/06/25 05:53:06;;;;;;;34.67;30.95;;;22.50;59.10;;;;;;4957512;28;20510;-75
2021/06/25 05:55:32;;;;;;;30.85;27.55;;;22.20;59.50;;;;;;4957938;28;20033;-77
2021/06/25 05:57:58;;;;;;;33.72;28.42;;;22.30;60.10;;;;;;4975083;28;20034;-75
2021/06/25 06:00:24;;;;;;;34.38;27.70;;;22.50;59.70;;;;;;4974775;28;20075;-75
2021/06/25 06:02:49;;;;;;;33.03;28.27;;;22.70;58.90;;;;;;4957541;28;20399;-75
2021/06/25 06:05:15;;;;;;;30.98;27.23;;;23.00;57.90;;;;;;4942538;28;20033;-75
2021/06/25 06:07:41;;;;;;;31.35;26.35;;;23.30;57.30;;;;;;4942048;28;20035;-75
2021/06/25 06:10:09;;;;;;;32.67;29.08;;;23.70;56.40;;;;;;4957758;28;20034;-76
2021/06/25 06:12:35;;;;;;;31.50;28.13;;;24.20;55.00;;;;;;4974336;28;20463;-78
2021/06/25 06:15:01;;;;;;;31.42;27.95;;;24.80;53.70;;;;;;4957521;28;20033;-77
2021/06/25 06:17:27;;;;;;;29.67;26.60;;;25.30;52.40;;;;;;4941737;28;20461;-76
2021/06/25 06:19:55;;;;;;;30.67;27.38;;;25.80;51.80;;;;;;4958975;28;20041;-77
2021/06/25 06:33:32;;;;;;;22.48;19.70;;;26.30;47.10;;;;;;4974807;28;20046;-76
2021/06/25 06:35:59;;;;;;;20.88;18.77;;;26.50;46.50;;;;;;4957494;28;20061;-77
2021/06/25 06:38:28;;;;;;;20.73;18.58;;;26.50;45.50;;;;;;4957705;28;20376;-75
2021/06/25 06:40:54;;;;;;;20.88;18.73;;;26.30;46.40;;;;;;4974842;28;20055;-79
2021/06/25 06:43:19;;;;;;;22.45;20.10;;;26.40;46.20;;;;;;4957412;28;20085;-76
2021/06/25 06:45:45;;;;;;;22.30;18.83;;;26.40;44.80;;;;;;4974462;28;20101;-78
2021/06/25 06:48:10;;;;;;;20.63;18.42;;;26.40;45.90;;;;;;4974876;28;20534;-76
2021/06/25 06:50:36;;;;;;;19.60;17.60;;;26.30;45.30;;;;;;4941184;28;20422;-76
2021/06/25 06:53:02;;;;;;;18.77;16.95;;;25.70;46.50;;;;;;4957344;28;20104;-76
2021/06/25 06:55:28;;;;;;;17.83;16.00;;;25.40;47.20;;;;;;4974538;28;20039;-76
2021/06/25 06:57:53;;;;;;;17.38;15.57;;;25.20;48.00;;;;;;4974213;28;20502;-75
2021/06/25 07:00:19;;;;;;;18.33;16.42;;;25.00;47.90;;;;;;4957219;28;20031;-77
2021/06/25 07:02:45;;;;;;;16.65;15.05;;;25.00;47.90;;;;;;4973764;28;20023;-79
2021/06/25 07:05:14;;;;;;;18.23;14.80;;;24.80;48.40;;;;;;4941592;28;20027;-77
2021/06/25 07:07:41;;;;;;;20.33;17.10;;;24.70;49.20;;;;;;4957061;28;20360;-77
2021/06/25 07:10:08;;;;;;;17.58;15.88;;;25.00;48.50;;;;;;4974527;28;20026;-76
2021/06/25 07:12:35;;;;;;;18.63;16.30;;;25.00;48.50;;;;;;4956953;28;20031;-76
2021/06/25 07:15:00;;;;;;;16.35;14.75;;;25.10;48.20;;;;;;4956004;28;20069;-76
2021/06/25 07:17:26;;;;;;;15.65;13.80;;;25.20;48.10;;;;;;4956883;28;20073;-76
2021/06/25 07:19:52;;;;;;;16.10;14.40;;;25.30;48.00;;;;;;4974194;28;20062;-76
2021/06/25 07:22:17;;;;;;;19.50;16.05;;;25.30;47.60;;;;;;4957635;28;20037;-77
2021/06/25 07:24:43;;;;;;;15.68;13.52;;;25.10;46.90;;;;;;4960910;28;20061;-76
2021/06/25 07:27:09;;;;;;;15.07;13.05;;;24.70;48.10;;;;;;4960624;28;20050;-76
2021/06/25 07:29:34;;;;;;;14.70;13.10;;;24.50;49.20;;;;;;4944821;28;20037;-76
2021/06/25 07:32:00;;;;;;;15.93;13.85;;;24.40;49.90;;;;;;4944419;28;20166;-77
2021/06/25 07:34:26;;;;;;;18.00;14.63;;;24.10;50.10;;;;;;4977624;28;20034;-76
2021/06/25 07:36:52;;;;;;;15.20;12.73;;;23.90;51.70;;;;;;4944649;28;20133;-76
2021/06/25 07:39:18;;;;;;;16.83;15.18;;;23.70;51.30;;;;;;4944288;28;20125;-76
2021/06/25 07:41:44;;;;;;;17.52;15.70;;;23.50;51.20;;;;;;4959855;28;20587;-76
2021/06/25 07:44:09;;;;;;;15.52;13.93;;;23.20;52.00;;;;;;4977097;28;20400;-78
2021/06/25 07:46:36;;;;;;;16.10;14.35;;;23.00;52.50;;;;;;4959787;28;20494;-77
2021/06/25 07:49:02;;;;;;;17.63;15.00;;;22.90;53.10;;;;;;4977192;28;20435;-77
2021/06/25 07:51:27;;;;;;;18.23;15.35;;;22.50;53.50;;;;;;4960230;28;20085;-78
2021/06/25 07:53:53;;;;;;;18.10;14.52;;;22.20;54.00;;;;;;4943747;28;20031;-77
2021/06/25 07:56:20;;;;;;;15.02;13.50;;;21.90;55.30;;;;;;4959607;28;20035;-76
2021/06/25 07:58:46;;;;;;;15.32;13.32;;;21.90;55.90;;;;;;4959583;28;20026;-76
2021/06/25 08:01:12;;;;;;;17.40;14.77;;;21.90;55.80;;;;;;4977415;28;20027;-75
2021/06/25 08:03:37;;;;;;;14.50;13.00;;;21.90;55.60;;;;;;4944434;28;20033;-75
2021/06/25 08:06:03;;;;;;;13.77;11.95;;;21.70;56.10;;;;;;4960579;28;20043;-75
2021/06/25 08:08:29;;;;;;;19.55;13.85;;;21.80;56.40;;;;;;4977358;28;20027;-75
2021/06/25 08:10:55;;;;;;;15.43;12.80;;;22.00;56.50;;;;;;4976922;28;20038;-75
2021/06/25 08:13:20;;;;;;;15.85;14.20;;;22.00;56.20;;;;;;4960066;28;20033;-74
2021/06/25 08:15:49;;;;;;;19.63;14.82;;;21.90;56.30;;;;;;4977006;28;20027;-75
2021/06/25 08:18:16;;;;;;;15.73;14.02;;;21.90;56.80;;;;;;4977392;28;20057;-75
2021/06/25 08:20:42;;;;;;;16.70;13.57;;;21.90;57.20;;;;;;4977581;28;20026;-75
2021/06/25 08:23:07;;;;;;;15.45;12.60;;;21.90;57.20;;;;;;4943899;28;20481;-75
2021/06/25 08:25:33;;;;;;;15.20;13.48;;;22.00;56.90;;;;;;4959645;28;20541;-75
2021/06/25 08:27:59;;;;;;;15.05;12.98;;;22.10;56.70;;;;;;4959173;28;20529;-73
2021/06/25 08:30:25;;;;;;;14.80;13.20;;;22.10;56.50;;;;;;4976624;28;20034;-75
2021/06/25 08:32:52;;;;;;;15.57;13.95;;;22.20;56.30;;;;;;4976643;28;20035;-76
2021/06/25 08:35:18;;;;;;;14.10;12.63;;;22.30;55.60;;;;;;4958452;28;20041;-74
2021/06/25 08:37:44;;;;;;;14.13;12.57;;;22.50;55.00;;;;;;4960214;28;20117;-75
2021/06/25 08:40:10;;;;;;;15.95;13.82;;;22.70;54.40;;;;;;4959282;28;20082;-76
2021/06/25 08:42:38;;;;;;;14.43;12.88;;;22.90;53.70;;;;;;4959275;28;20023;-77
2021/06/25 08:45:06;;;;;;;18.10;14.30;;;23.20;53.50;;;;;;4976183;28;20039;-76
2021/06/25 08:47:41;;;;;;;18.73;12.50;;;23.70;52.70;;;;;;4959629;28;20097;-74
2021/06/25 08:50:12;;;;;;;14.30;12.13;;;24.20;51.30;;;;;;4960445;28;20027;-75
2021/06/25 08:52:38;;;;;;;15.15;13.35;;;24.80;49.50;;;;;;4979256;28;20081;-75
2021/06/25 08:55:04;;;;;;;14.98;13.27;;;25.40;47.60;;;;;;4979556;28;20023;-74
2021/06/25 08:57:36;;;;;;;14.75;12.52;;;26.10;47.40;;;;;;4963065;28;20434;-75
2021/06/25 09:00:09;;;;;;;13.20;10.73;;;26.50;45.40;;;;;;4961417;28;20094;-76
2021/06/25 09:02:36;;;;;;;11.13;9.85;;;26.90;46.00;;;;;;4976724;28;20027;-76
2021/06/25 09:05:26;;;;;;;9.95;8.82;;;27.30;43.10;;;;;;4976725;28;20058;-75
2021/06/25 09:07:53;;;;;;;9.43;8.30;;;27.90;43.10;;;;;;4959403;28;20034;-76
2021/06/25 09:10:48;;;;;;;8.60;7.43;;;28.30;40.50;;;;;;4959381;28;20030;-76
2021/06/25 09:13:14;;;;;;;8.77;7.93;;;28.70;39.90;;;;;;4967516;28;20117;-76
2021/06/25 09:15:42;;;;;;;9.10;8.10;;;28.60;39.10;;;;;;4976122;28;20498;-77
2021/06/25 09:18:11;;;;;;;9.23;7.00;;;28.50;38.40;;;;;;4976069;28;20086;-76
2021/06/25 09:20:55;;;;;;;9.15;8.00;;;27.90;39.30;;;;;;4975962;28;20089;-75
2021/06/25 09:23:34;;;;;;;7.85;6.45;;;27.70;39.20;;;;;;4976155;28;20116;-76
2021/06/25 09:26:10;;;;;;;7.28;6.57;;;27.30;40.10;;;;;;4958609;28;20026;-77
2021/06/25 09:28:44;;;;;;;5.50;5.10;;;27.10;39.80;;;;;;4958779;28;20097;-76
2021/06/25 09:31:17;;;;;;;6.50;5.93;;;26.90;40.10;;;;;;4975884;28;20194;-76
2021/06/25 09:33:48;;;;;;;7.00;6.30;;;26.80;40.20;;;;;;4975591;28;20057;-75
2021/06/25 09:36:21;;;;;;;6.38;5.75;;;26.60;40.00;;;;;;4958678;28;20173;-75
2021/06/25 09:38:54;;;;;;;7.28;6.45;;;26.60;40.40;;;;;;4975856;28;20019;-75
2021/06/25 09:41:21;;;;;;;8.35;7.50;;;26.50;40.60;;;;;;4974297;28;20245;-76
2021/06/25 09:44:00;;;;;;;7.18;6.47;;;26.30;40.80;;;;;;4975578;28;20035;-76
2021/06/25 09:46:31;;;;;;;8.52;7.60;;;26.20;41.50;;;;;;4975694;28;20115;-77
2021/06/25 09:49:22;;;;;;;10.98;7.70;;;26.10;41.30;;;;;;4974333;28;20027;-77
2021/06/25 09:51:58;;;;;;;10.15;7.78;;;26.00;41.70;;;;;;4975919;28;20030;-76
2021/06/25 09:54:26;;;;;;;10.68;9.25;;;26.10;41.90;;;;;;4975466;28;20027;-77
2021/06/25 10:02:18;;;;;;;7.57;6.75;;;26.30;41.90;;;;;;4975127;28;20027;-77
2021/06/25 10:04:46;;;;;;;7.32;6.38;;;26.40;41.50;;;;;;4973620;28;20038;-78
2021/06/25 10:07:29;;;;;;;7.35;6.65;;;26.40;41.50;;;;;;4974960;28;20034;-77
2021/06/25 10:10:07;;;;;;;8.85;7.78;;;26.60;41.20;;;;;;4958531;28;20101;-77
2021/06/25 10:12:36;;;;;;;10.35;7.22;;;26.60;41.00;;;;;;4975292;28;20030;-77
2021/06/25 10:15:02;;;;;;;7.95;7.10;;;26.70;40.80;;;;;;4974630;28;20033;-77
2021/06/25 10:17:28;;;;;;;9.13;6.97;;;26.80;41.50;;;;;;4957676;28;20039;-78
2021/06/25 10:20:02;;;;;;;7.07;6.40;;;27.20;41.20;;;;;;4958236;28;20030;-78
2021/06/25 10:22:28;;;;;;;7.30;6.60;;;27.70;40.70;;;;;;4975051;28;20035;-78
2021/06/25 10:24:56;;;;;;;8.27;7.43;;;28.10;40.30;;;;;;4957356;28;20517;-80
2021/06/25 10:27:23;;;;;;;10.68;8.48;;;28.50;39.70;;;;;;4957485;28;20027;-77
2021/06/25 10:29:50;;;;;;;8.02;7.32;;;28.70;38.90;;;;;;4957708;28;20037;-78
2021/06/25 10:32:17;;;;;;;9.80;8.80;;;28.90;39.30;;;;;;4974216;28;20034;-79
2021/06/25 10:34:44;;;;;;;8.75;7.85;;;29.10;39.80;;;;;;4974662;28;20411;-76
2021/06/25 10:37:20;;;;;;;9.02;8.15;;;29.20;39.10;;;;;;4974796;28;20125;-80
2021/06/25 10:39:45;;;;;;;8.90;8.00;;;29.30;39.50;;;;;;4957508;28;20031;-77
2021/06/25 10:42:11;;;;;;;9.15;8.35;;;29.40;39.20;;;;;;4957165;28;20059;-80
2021/06/25 10:44:51;;;;;;;9.23;8.30;;;29.60;38.80;;;;;;4974607;28;20034;-77
2021/06/25 10:47:23;;;;;;;9.45;8.55;;;29.80;39.30;;;;;;4974386;28;20027;-76
2021/06/25 10:50:01;;;;;;;9.13;8.23;;;30.00;38.00;;;;;;4974832;28;20030;-76
2021/06/25 10:52:29;;;;;;;12.43;9.05;;;29.90;38.50;;;;;;4974350;28;20037;-76
2021/06/25 10:55:01;;;;;;;8.50;7.60;;;29.70;37.90;;;;;;4974116;28;20031;-75
2021/06/25 10:57:28;;;;;;;9.10;7.85;;;29.60;39.10;;;;;;4956121;28;20118;-76
2021/06/25 10:59:54;;;;;;;10.40;7.80;;;29.70;38.50;;;;;;4973763;28;20066;-75
2021/06/25 11:02:46;;;;;;;7.68;6.95;;;29.80;38.50;;;;;;4973867;28;20392;-78
2021/06/25 11:05:22;;;;;;;;;;;29.70;39.10;;;;;;4975368;28;20030;-78
2021/06/25 11:07:49;;;;;;;12.27;9.02;;;29.60;38.70;;;;;;4974187;28;19969;-75
2021/06/25 11:10:32;;;;;;;8.88;7.97;;;29.50;38.50;;;;;;4957019;28;20054;-79
2021/06/25 11:13:13;;;;;;;9.23;8.30;;;29.40;39.80;;;;;;4973988;28;20034;-76
2021/06/25 11:15:41;;;;;;;7.57;6.60;;;29.40;39.70;;;;;;4973317;28;20073;-76
2021/06/25 11:18:29;;;;;;;8.13;7.32;;;29.60;39.80;;;;;;4973867;28;20042;-76
2021/06/25 11:21:02;;;;;;;8.60;7.80;;;29.90;39.40;;;;;;4973984;28;20030;-75
2021/06/25 11:23:39;;;;;;;8.63;7.82;;;30.00;39.20;;;;;;4974006;28;20023;-80
2021/06/25 11:26:15;;;;;;;9.77;8.35;;;30.20;38.90;;;;;;4972649;28;20023;-75
2021/06/25 11:28:44;;;;;;;8.23;7.53;;;30.30;38.60;;;;;;4974124;28;20558;-75
2021/06/25 11:31:20;;;;;;;8.32;7.40;;;30.30;38.90;;;;;;4940651;28;20027;-76
2021/06/25 11:33:49;;;;;;;7.07;6.38;;;30.40;38.20;;;;;;4974608;28;20026;-76
2021/06/25 11:36:24;;;;;;;7.80;7.05;;;30.30;37.50;;;;;;4974525;28;20035;-78
2021/06/25 11:38:53;;;;;;;8.13;6.90;;;30.30;38.00;;;;;;4974037;28;20031;-76
2021/06/25 11:41:30;;;;;;;8.65;7.72;;;30.40;37.70;;;;;;4969388;28;20059;-80
2021/06/25 11:43:58;;;;;;;8.18;7.38;;;30.50;37.70;;;;;;4953714;29;20122;-74
2021/06/25 11:46:25;;;;;;;10.18;7.82;;;30.60;37.60;;;;;;4955326;28;20125;-77
2021/06/25 11:48:54;;;;;;;9.55;8.20;;;30.50;37.90;;;;;;4954484;28;20098;-76
2021/06/25 11:51:25;;;;;;;8.73;7.82;;;30.40;37.80;;;;;;4955012;28;20023;-78
2021/06/25 11:53:52;;;;;;;8.63;7.82;;;30.50;38.00;;;;;;4969602;28;20027;-75
2021/06/25 11:56:22;;;;;;;11.30;7.93;;;30.60;38.30;;;;;;4953303;29;20035;-77
2021/06/25 11:59:00;;;;;;;10.00;7.65;;;30.30;37.70;;;;;;4953476;29;20452;-74
2021/06/25 12:01:27;;;;;;;7.90;7.20;;;29.90;38.10;;;;;;4953339;29;20033;-76
2021/06/25 12:03:53;;;;;;;8.48;6.75;;;30.10;38.50;;;;;;4937578;29;20036;-75
2021/06/25 12:06:20;;;;;;;6.68;6.18;;;30.30;37.90;;;;;;4953516;29;20385;-78
2021/06/25 12:09:00;;;;;;;6.63;5.70;;;30.50;37.40;;;;;;4953395;28;20031;-74
2021/06/25 12:11:30;;;;;;;6.47;5.88;;;30.70;37.40;;;;;;4956868;29;20031;-76
2021/06/25 12:14:14;;;;;;;6.30;5.70;;;30.60;37.30;;;;;;4958326;28;20507;-75
2021/06/25 12:16:42;;;;;;;6.28;5.63;;;30.70;37.60;;;;;;4958650;28;20035;-75
2021/06/25 12:19:12;;;;;;;6.93;6.22;;;30.80;37.00;;;;;;4956685;29;20026;-75
2021/06/25 12:21:38;;;;;;;7.05;5.82;;;30.60;37.10;;;;;;4957186;29;20023;-75
2021/06/25 12:24:05;;;;;;;8.32;5.70;;;30.70;37.10;;;;;;4956713;29;20118;-76
2021/06/25 12:26:31;;;;;;;6.22;5.68;;;30.70;37.00;;;;;;4972300;28;20043;-77
2021/06/25 12:28:59;;;;;;;6.82;6.10;;;30.60;37.50;;;;;;4958213;28;20469;-77
2021/06/25 12:31:30;;;;;;;7.72;6.22;;;30.60;37.90;;;;;;4957524;28;20110;-76
2021/06/25 12:34:09;;;;;;;5.15;4.72;;;30.50;37.70;;;;;;4957694;28;20530;-76
2021/06/25 12:36:36;;;;;;;6.75;6.03;;;30.60;38.00;;;;;;4957341;28;20059;-75
2021/06/25 12:39:08;;;;;;;7.45;6.75;;;30.80;37.60;;;;;;4957639;28;20118;-76
2021/06/25 12:41:44;;;;;;;7.28;6.13;;;30.90;37.50;;;;;;4955743;29;20145;-75
2021/06/25 12:44:11;;;;;;;7.68;6.18;;;31.00;37.70;;;;;;4956340;29;20050;-75
2021/06/25 12:46:37;;;;;;;7.18;6.47;;;31.10;37.70;;;;;;4940049;29;20027;-75
2021/06/25 12:49:04;;;;;;;8.20;7.40;;;31.00;37.20;;;;;;4957719;29;20028;-76
2021/06/25 12:51:34;;;;;;;8.93;7.68;;;30.70;37.20;;;;;;4957581;28;20121;-75
2021/06/25 12:54:00;;;;;;;6.43;5.28;;;30.40;37.80;;;;;;4957297;28;20023;-76